Portada
METAR-TAF:

METAR-TAF

Aeroports :

Yap, Micronèsia

latitud: 09-29N, longitud: 138-05E, altitud: 28 m

Observació

L'informe es va fer fa 46 minuts, a les 00:50 UTC
Vent calma
Temperatura 30°C
Humitat 79%
Pressió 1011 hPa
Visibilitat: 19.3 km
Escasses núvols a una alçada de 1800 ft, Cumulus congestus.
Cel ennuvolat a una alçada de 30000 ft

METAR: PTYA 220050Z 00000KT 12SM FEW018TCU BKN300 30/26 A2984 RMK TCU SW SLP105 T03030256

Hora: 11:36 (01:36 UTC)

Pronòstic

L'informe es va fer fa 2 hores i 4 minuts, a les 23:32 UTC
Pronòstic vàlid del 22 a les 00 UTC al 22 a les 24 UTC
Vent 6 kt del Nord-Est
Visibilitat: 10 km
Escasses núvols a una alçada de 1600 ft
xàfecs en les proximitats

TAF: PTYA 212332Z 2200/2224 05006KT P6SM VCSH FEW016

Observacions i pronòstics meteorològics de més de 4000 aeroports (METAR i TAF).

Les estacions disponibles són els punts grocs i vermells al mapa.

Posi el ratolí al punt desitjat per veure el nom de l'estació.

Feu clic per veure les observacions i els pronòstics meteorològics.

Per canviar el mapa: feu clic els botons verds amb una creu de color negre per apropar; al botó verd amb un guió per allunyar la imatge; o en les fletxes verdes per a mapes adjacents.


METAR-TAF: